sensor_id;sensor_type;location;lat;lon;timestamp;temperature;humidity
16627;DHT22;8427;52.204;7.202;2023-12-14T00:01:22;5.50;94.50
16627;DHT22;8427;52.204;7.202;2023-12-14T00:03:50;5.40;94.50
16627;DHT22;8427;52.204;7.202;2023-12-14T00:06:18;5.30;94.60
16627;DHT22;8427;52.204;7.202;2023-12-14T00:08:47;5.20;94.50
16627;DHT22;8427;52.204;7.202;2023-12-14T00:11:15;5.20;94.40
16627;DHT22;8427;52.204;7.202;2023-12-14T00:13:43;5.10;94.40
16627;DHT22;8427;52.204;7.202;2023-12-14T00:16:12;5.30;94.50
16627;DHT22;8427;52.204;7.202;2023-12-14T00:18:40;5.20;94.30
16627;DHT22;8427;52.204;7.202;2023-12-14T00:21:08;5.40;94.30
16627;DHT22;8427;52.204;7.202;2023-12-14T00:23:35;5.40;94.40
16627;DHT22;8427;52.204;7.202;2023-12-14T00:26:03;5.20;94.50
16627;DHT22;8427;52.204;7.202;2023-12-14T00:28:31;5.30;94.50
16627;DHT22;8427;52.204;7.202;2023-12-14T00:31:00;5.30;94.50
16627;DHT22;8427;52.204;7.202;2023-12-14T00:33:30;5.20;94.50
16627;DHT22;8427;52.204;7.202;2023-12-14T00:35:57;5.20;94.70
16627;DHT22;8427;52.204;7.202;2023-12-14T00:38:25;5.20;94.40
16627;DHT22;8427;52.204;7.202;2023-12-14T00:40:53;5.30;94.50
16627;DHT22;8427;52.204;7.202;2023-12-14T00:43:21;5.00;94.40
16627;DHT22;8427;52.204;7.202;2023-12-14T00:45:49;5.10;94.40
16627;DHT22;8427;52.204;7.202;2023-12-14T00:48:18;5.10;94.40
16627;DHT22;8427;52.204;7.202;2023-12-14T00:50:48;5.10;94.60
16627;DHT22;8427;52.204;7.202;2023-12-14T00:53:16;5.00;94.60
16627;DHT22;8427;52.204;7.202;2023-12-14T00:55:43;4.90;94.40
16627;DHT22;8427;52.204;7.202;2023-12-14T00:58:12;5.10;94.30
16627;DHT22;8427;52.204;7.202;2023-12-14T01:00:41;5.00;94.50
16627;DHT22;8427;52.204;7.202;2023-12-14T01:03:09;5.10;94.60
16627;DHT22;8427;52.204;7.202;2023-12-14T01:05:37;5.10;94.40
16627;DHT22;8427;52.204;7.202;2023-12-14T01:08:06;5.00;94.30
16627;DHT22;8427;52.204;7.202;2023-12-14T01:10:35;4.90;94.10
16627;DHT22;8427;52.204;7.202;2023-12-14T01:13:02;5.20;94.00
16627;DHT22;8427;52.204;7.202;2023-12-14T01:15:30;4.90;94.00
16627;DHT22;8427;52.204;7.202;2023-12-14T01:17:58;5.00;93.70
16627;DHT22;8427;52.204;7.202;2023-12-14T01:20:26;5.00;93.70
16627;DHT22;8427;52.204;7.202;2023-12-14T01:22:54;4.90;93.60
16627;DHT22;8427;52.204;7.202;2023-12-14T01:25:23;5.00;93.70
16627;DHT22;8427;52.204;7.202;2023-12-14T01:27:51;5.00;93.80
16627;DHT22;8427;52.204;7.202;2023-12-14T01:30:19;5.00;93.90
16627;DHT22;8427;52.204;7.202;2023-12-14T01:32:47;4.90;93.90
16627;DHT22;8427;52.204;7.202;2023-12-14T01:35:15;4.80;93.90
16627;DHT22;8427;52.204;7.202;2023-12-14T01:37:43;4.80;94.10
16627;DHT22;8427;52.204;7.202;2023-12-14T01:40:11;4.80;93.90
16627;DHT22;8427;52.204;7.202;2023-12-14T01:42:40;4.90;93.90
16627;DHT22;8427;52.204;7.202;2023-12-14T01:45:09;4.90;94.00
16627;DHT22;8427;52.204;7.202;2023-12-14T01:47:37;4.90;93.80
16627;DHT22;8427;52.204;7.202;2023-12-14T01:50:06;4.90;93.70
16627;DHT22;8427;52.204;7.202;2023-12-14T01:52:34;4.80;93.70
16627;DHT22;8427;52.204;7.202;2023-12-14T01:55:03;4.80;93.30
16627;DHT22;8427;52.204;7.202;2023-12-14T01:57:31;4.90;93.50
16627;DHT22;8427;52.204;7.202;2023-12-14T02:00:00;5.00;93.60
16627;DHT22;8427;52.204;7.202;2023-12-14T02:02:28;4.90;93.40
16627;DHT22;8427;52.204;7.202;2023-12-14T02:04:56;4.90;93.50
16627;DHT22;8427;52.204;7.202;2023-12-14T02:07:24;5.10;93.40
16627;DHT22;8427;52.204;7.202;2023-12-14T02:09:52;4.80;93.20
16627;DHT22;8427;52.204;7.202;2023-12-14T02:12:20;5.00;93.00
16627;DHT22;8427;52.204;7.202;2023-12-14T02:14:48;4.90;93.00
16627;DHT22;8427;52.204;7.202;2023-12-14T02:17:18;4.60;93.20
16627;DHT22;8427;52.204;7.202;2023-12-14T02:19:46;4.90;93.30
16627;DHT22;8427;52.204;7.202;2023-12-14T02:22:13;4.90;93.40
16627;DHT22;8427;52.204;7.202;2023-12-14T02:24:45;4.60;93.10
16627;DHT22;8427;52.204;7.202;2023-12-14T02:27:12;4.70;93.00
16627;DHT22;8427;52.204;7.202;2023-12-14T02:29:40;4.70;93.40
16627;DHT22;8427;52.204;7.202;2023-12-14T02:32:08;4.80;93.60
16627;DHT22;8427;52.204;7.202;2023-12-14T02:34:36;4.70;93.40
16627;DHT22;8427;52.204;7.202;2023-12-14T02:37:04;4.60;93.50
16627;DHT22;8427;52.204;7.202;2023-12-14T02:39:32;4.80;93.30
16627;DHT22;8427;52.204;7.202;2023-12-14T02:42:01;4.80;93.40
16627;DHT22;8427;52.204;7.202;2023-12-14T02:44:29;4.80;93.60
16627;DHT22;8427;52.204;7.202;2023-12-14T02:46:57;4.80;93.30
16627;DHT22;8427;52.204;7.202;2023-12-14T02:49:25;4.60;93.40
16627;DHT22;8427;52.204;7.202;2023-12-14T02:51:53;4.50;93.60
16627;DHT22;8427;52.204;7.202;2023-12-14T02:54:21;4.50;93.90
16627;DHT22;8427;52.204;7.202;2023-12-14T02:56:49;4.60;93.80
16627;DHT22;8427;52.204;7.202;2023-12-14T02:59:18;4.70;93.90
16627;DHT22;8427;52.204;7.202;2023-12-14T03:01:46;4.50;93.40
16627;DHT22;8427;52.204;7.202;2023-12-14T03:04:14;4.70;93.40
16627;DHT22;8427;52.204;7.202;2023-12-14T03:06:41;4.70;93.10
16627;DHT22;8427;52.204;7.202;2023-12-14T03:09:09;4.60;93.10
16627;DHT22;8427;52.204;7.202;2023-12-14T03:11:37;4.60;93.40
16627;DHT22;8427;52.204;7.202;2023-12-14T03:14:05;4.80;93.40
16627;DHT22;8427;52.204;7.202;2023-12-14T03:16:34;4.60;93.20
16627;DHT22;8427;52.204;7.202;2023-12-14T03:19:03;5.00;93.20
16627;DHT22;8427;52.204;7.202;2023-12-14T03:21:31;4.60;93.00
16627;DHT22;8427;52.204;7.202;2023-12-14T03:23:59;4.70;93.10
16627;DHT22;8427;52.204;7.202;2023-12-14T03:26:26;4.80;93.10
16627;DHT22;8427;52.204;7.202;2023-12-14T03:28:54;4.70;92.80
16627;DHT22;8427;52.204;7.202;2023-12-14T03:31:23;4.80;92.70
16627;DHT22;8427;52.204;7.202;2023-12-14T03:33:52;4.80;92.90
16627;DHT22;8427;52.204;7.202;2023-12-14T03:36:20;4.60;93.00
16627;DHT22;8427;52.204;7.202;2023-12-14T03:38:49;4.60;92.50
16627;DHT22;8427;52.204;7.202;2023-12-14T03:41:17;4.70;92.60
16627;DHT22;8427;52.204;7.202;2023-12-14T03:43:44;4.90;92.90
16627;DHT22;8427;52.204;7.202;2023-12-14T03:46:12;4.90;92.90
16627;DHT22;8427;52.204;7.202;2023-12-14T03:48:40;4.50;92.60
16627;DHT22;8427;52.204;7.202;2023-12-14T03:51:09;4.50;92.40
16627;DHT22;8427;52.204;7.202;2023-12-14T03:53:37;4.50;92.50
16627;DHT22;8427;52.204;7.202;2023-12-14T03:56:06;4.80;92.30
16627;DHT22;8427;52.204;7.202;2023-12-14T03:58:34;4.90;92.40
16627;DHT22;8427;52.204;7.202;2023-12-14T04:01:02;4.80;92.20
16627;DHT22;8427;52.204;7.202;2023-12-14T04:03:30;4.70;92.50
16627;DHT22;8427;52.204;7.202;2023-12-14T04:05:58;4.70;92.70
16627;DHT22;8427;52.204;7.202;2023-12-14T04:08:28;4.70;93.00
16627;DHT22;8427;52.204;7.202;2023-12-14T04:10:56;4.70;93.00
16627;DHT22;8427;52.204;7.202;2023-12-14T04:13:23;4.60;92.20
16627;DHT22;8427;52.204;7.202;2023-12-14T04:15:51;4.60;92.60
16627;DHT22;8427;52.204;7.202;2023-12-14T04:18:19;4.80;92.60
16627;DHT22;8427;52.204;7.202;2023-12-14T04:20:47;4.70;92.60
16627;DHT22;8427;52.204;7.202;2023-12-14T04:23:15;4.60;92.50
16627;DHT22;8427;52.204;7.202;2023-12-14T04:25:44;4.80;92.70
16627;DHT22;8427;52.204;7.202;2023-12-14T04:28:12;4.80;92.60
16627;DHT22;8427;52.204;7.202;2023-12-14T04:30:40;4.90;92.60
16627;DHT22;8427;52.204;7.202;2023-12-14T04:33:08;4.70;92.60
16627;DHT22;8427;52.204;7.202;2023-12-14T04:35:36;4.80;92.60
16627;DHT22;8427;52.204;7.202;2023-12-14T04:38:04;4.70;92.30
16627;DHT22;8427;52.204;7.202;2023-12-14T04:40:32;4.80;92.40
16627;DHT22;8427;52.204;7.202;2023-12-14T04:43:02;4.70;92.30
16627;DHT22;8427;52.204;7.202;2023-12-14T04:45:29;4.80;91.70
16627;DHT22;8427;52.204;7.202;2023-12-14T04:47:57;4.50;92.20
16627;DHT22;8427;52.204;7.202;2023-12-14T04:50:25;4.60;92.30
16627;DHT22;8427;52.204;7.202;2023-12-14T04:52:53;4.80;92.50
16627;DHT22;8427;52.204;7.202;2023-12-14T04:55:21;4.60;92.50
16627;DHT22;8427;52.204;7.202;2023-12-14T04:57:49;4.60;92.50
16627;DHT22;8427;52.204;7.202;2023-12-14T05:00:18;4.80;92.50
16627;DHT22;8427;52.204;7.202;2023-12-14T05:02:47;4.50;92.30
16627;DHT22;8427;52.204;7.202;2023-12-14T05:05:16;4.50;92.50
16627;DHT22;8427;52.204;7.202;2023-12-14T05:07:43;4.60;92.50
16627;DHT22;8427;52.204;7.202;2023-12-14T05:10:12;4.60;92.10
16627;DHT22;8427;52.204;7.202;2023-12-14T05:12:39;4.50;92.20
16627;DHT22;8427;52.204;7.202;2023-12-14T05:15:08;4.60;92.40
16627;DHT22;8427;52.204;7.202;2023-12-14T05:17:38;4.70;92.40
16627;DHT22;8427;52.204;7.202;2023-12-14T05:20:08;4.70;92.30
16627;DHT22;8427;52.204;7.202;2023-12-14T05:22:36;4.70;92.20
16627;DHT22;8427;52.204;7.202;2023-12-14T05:25:05;4.90;92.50
16627;DHT22;8427;52.204;7.202;2023-12-14T05:27:33;4.70;92.60
16627;DHT22;8427;52.204;7.202;2023-12-14T05:30:01;4.70;92.50
16627;DHT22;8427;52.204;7.202;2023-12-14T05:32:29;4.50;92.30
16627;DHT22;8427;52.204;7.202;2023-12-14T05:34:58;4.60;92.30
16627;DHT22;8427;52.204;7.202;2023-12-14T05:37:27;4.50;92.80
16627;DHT22;8427;52.204;7.202;2023-12-14T05:39:54;4.60;92.90
16627;DHT22;8427;52.204;7.202;2023-12-14T05:42:22;4.50;92.70
16627;DHT22;8427;52.204;7.202;2023-12-14T05:44:50;4.50;92.60
16627;DHT22;8427;52.204;7.202;2023-12-14T05:47:18;4.90;92.80
16627;DHT22;8427;52.204;7.202;2023-12-14T05:49:46;4.60;92.80
16627;DHT22;8427;52.204;7.202;2023-12-14T05:52:15;4.60;92.90
16627;DHT22;8427;52.204;7.202;2023-12-14T05:54:43;4.80;92.80
16627;DHT22;8427;52.204;7.202;2023-12-14T05:57:11;4.60;92.70
16627;DHT22;8427;52.204;7.202;2023-12-14T05:59:39;4.60;92.80
16627;DHT22;8427;52.204;7.202;2023-12-14T06:02:07;4.50;92.90
16627;DHT22;8427;52.204;7.202;2023-12-14T06:04:36;4.50;92.80
16627;DHT22;8427;52.204;7.202;2023-12-14T06:07:03;4.60;92.70
16627;DHT22;8427;52.204;7.202;2023-12-14T06:09:33;4.40;92.60
16627;DHT22;8427;52.204;7.202;2023-12-14T06:12:02;4.60;92.70
16627;DHT22;8427;52.204;7.202;2023-12-14T06:14:30;4.70;92.60
16627;DHT22;8427;52.204;7.202;2023-12-14T06:16:58;4.40;92.80
16627;DHT22;8427;52.204;7.202;2023-12-14T06:19:26;4.60;92.80
16627;DHT22;8427;52.204;7.202;2023-12-14T06:21:54;4.50;92.70
16627;DHT22;8427;52.204;7.202;2023-12-14T06:24:22;4.50;92.60
16627;DHT22;8427;52.204;7.202;2023-12-14T06:26:51;4.70;92.90
16627;DHT22;8427;52.204;7.202;2023-12-14T06:29:19;4.50;92.60
16627;DHT22;8427;52.204;7.202;2023-12-14T06:31:47;4.70;92.30
16627;DHT22;8427;52.204;7.202;2023-12-14T06:34:15;4.40;92.60
16627;DHT22;8427;52.204;7.202;2023-12-14T06:36:43;4.50;92.80
16627;DHT22;8427;52.204;7.202;2023-12-14T06:39:11;4.50;92.60
16627;DHT22;8427;52.204;7.202;2023-12-14T06:41:39;4.60;92.60
16627;DHT22;8427;52.204;7.202;2023-12-14T06:44:08;4.50;92.50
16627;DHT22;8427;52.204;7.202;2023-12-14T06:46:37;4.50;92.70
16627;DHT22;8427;52.204;7.202;2023-12-14T06:49:05;4.50;92.70
16627;DHT22;8427;52.204;7.202;2023-12-14T06:51:33;4.50;92.90
16627;DHT22;8427;52.204;7.202;2023-12-14T06:54:01;4.50;93.00
16627;DHT22;8427;52.204;7.202;2023-12-14T06:56:29;4.50;92.70
16627;DHT22;8427;52.204;7.202;2023-12-14T06:58:56;4.40;92.90
16627;DHT22;8427;52.204;7.202;2023-12-14T07:01:26;4.40;93.00
16627;DHT22;8427;52.204;7.202;2023-12-14T07:03:54;4.50;92.70
16627;DHT22;8427;52.204;7.202;2023-12-14T07:06:22;4.50;92.50
16627;DHT22;8427;52.204;7.202;2023-12-14T07:08:50;4.40;92.60
16627;DHT22;8427;52.204;7.202;2023-12-14T07:11:17;4.20;92.40
16627;DHT22;8427;52.204;7.202;2023-12-14T07:13:45;4.10;92.40
16627;DHT22;8427;52.204;7.202;2023-12-14T07:16:13;4.40;92.30
16627;DHT22;8427;52.204;7.202;2023-12-14T07:18:45;4.30;92.20
16627;DHT22;8427;52.204;7.202;2023-12-14T07:21:13;4.30;91.90
16627;DHT22;8427;52.204;7.202;2023-12-14T07:23:41;4.30;92.00
16627;DHT22;8427;52.204;7.202;2023-12-14T07:26:09;4.10;91.90
16627;DHT22;8427;52.204;7.202;2023-12-14T07:28:37;4.20;91.30
16627;DHT22;8427;52.204;7.202;2023-12-14T07:31:05;4.40;91.90
16627;DHT22;8427;52.204;7.202;2023-12-14T07:33:33;4.30;91.30
16627;DHT22;8427;52.204;7.202;2023-12-14T07:36:04;4.10;91.30
16627;DHT22;8427;52.204;7.202;2023-12-14T07:38:32;4.20;91.20
16627;DHT22;8427;52.204;7.202;2023-12-14T07:41:00;4.10;91.30
16627;DHT22;8427;52.204;7.202;2023-12-14T07:43:28;4.20;90.80
16627;DHT22;8427;52.204;7.202;2023-12-14T07:45:57;4.00;91.20
16627;DHT22;8427;52.204;7.202;2023-12-14T07:48:25;4.40;91.00
16627;DHT22;8427;52.204;7.202;2023-12-14T07:50:55;4.10;90.70
16627;DHT22;8427;52.204;7.202;2023-12-14T07:53:24;4.10;90.80
16627;DHT22;8427;52.204;7.202;2023-12-14T07:55:51;4.20;90.70
16627;DHT22;8427;52.204;7.202;2023-12-14T07:58:19;4.20;91.00
16627;DHT22;8427;52.204;7.202;2023-12-14T08:00:48;4.10;91.00
16627;DHT22;8427;52.204;7.202;2023-12-14T08:03:16;4.20;90.70
16627;DHT22;8427;52.204;7.202;2023-12-14T08:05:43;4.20;90.30
16627;DHT22;8427;52.204;7.202;2023-12-14T08:08:11;4.10;90.20
16627;DHT22;8427;52.204;7.202;2023-12-14T08:10:41;4.20;90.10
16627;DHT22;8427;52.204;7.202;2023-12-14T08:13:09;4.20;90.60
16627;DHT22;8427;52.204;7.202;2023-12-14T08:15:36;4.00;90.40
16627;DHT22;8427;52.204;7.202;2023-12-14T08:18:04;4.10;89.30
16627;DHT22;8427;52.204;7.202;2023-12-14T08:20:32;4.20;89.80
16627;DHT22;8427;52.204;7.202;2023-12-14T08:23:00;4.10;89.50
16627;DHT22;8427;52.204;7.202;2023-12-14T08:25:28;4.00;89.50
16627;DHT22;8427;52.204;7.202;2023-12-14T08:27:58;4.20;90.10
16627;DHT22;8427;52.204;7.202;2023-12-14T08:30:30;4.20;90.20
16627;DHT22;8427;52.204;7.202;2023-12-14T08:32:58;4.40;90.10
16627;DHT22;8427;52.204;7.202;2023-12-14T08:35:26;4.30;90.10
16627;DHT22;8427;52.204;7.202;2023-12-14T08:37:54;4.30;89.60
16627;DHT22;8427;52.204;7.202;2023-12-14T08:40:22;4.40;89.40
16627;DHT22;8427;52.204;7.202;2023-12-14T08:42:50;4.50;89.20
16627;DHT22;8427;52.204;7.202;2023-12-14T08:45:19;4.20;89.90
16627;DHT22;8427;52.204;7.202;2023-12-14T08:47:47;4.50;90.40
16627;DHT22;8427;52.204;7.202;2023-12-14T08:50:15;4.40;90.30
16627;DHT22;8427;52.204;7.202;2023-12-14T08:52:43;4.40;88.80
16627;DHT22;8427;52.204;7.202;2023-12-14T08:55:12;4.40;88.60
16627;DHT22;8427;52.204;7.202;2023-12-14T08:57:41;4.60;88.50
16627;DHT22;8427;52.204;7.202;2023-12-14T09:00:10;4.30;88.00
16627;DHT22;8427;52.204;7.202;2023-12-14T09:02:39;4.30;88.10
16627;DHT22;8427;52.204;7.202;2023-12-14T09:05:08;4.40;87.80
16627;DHT22;8427;52.204;7.202;2023-12-14T09:07:40;4.50;88.20
16627;DHT22;8427;52.204;7.202;2023-12-14T09:10:09;4.50;88.10
16627;DHT22;8427;52.204;7.202;2023-12-14T09:12:37;4.70;88.40
16627;DHT22;8427;52.204;7.202;2023-12-14T09:15:05;4.60;88.30
16627;DHT22;8427;52.204;7.202;2023-12-14T09:17:33;4.50;88.00
16627;DHT22;8427;52.204;7.202;2023-12-14T09:20:06;4.60;88.40
16627;DHT22;8427;52.204;7.202;2023-12-14T09:22:35;4.90;88.50
16627;DHT22;8427;52.204;7.202;2023-12-14T09:25:03;4.50;88.50
16627;DHT22;8427;52.204;7.202;2023-12-14T09:27:31;4.80;88.70
16627;DHT22;8427;52.204;7.202;2023-12-14T09:30:00;4.90;88.70
16627;DHT22;8427;52.204;7.202;2023-12-14T09:32:28;4.50;88.10
16627;DHT22;8427;52.204;7.202;2023-12-14T09:34:56;4.80;88.40
16627;DHT22;8427;52.204;7.202;2023-12-14T09:37:26;4.70;88.10
16627;DHT22;8427;52.204;7.202;2023-12-14T09:39:55;4.70;88.00
16627;DHT22;8427;52.204;7.202;2023-12-14T09:42:22;4.80;87.90
16627;DHT22;8427;52.204;7.202;2023-12-14T09:44:51;4.80;87.70
16627;DHT22;8427;52.204;7.202;2023-12-14T09:47:20;4.80;87.30
16627;DHT22;8427;52.204;7.202;2023-12-14T09:49:49;4.80;87.90
16627;DHT22;8427;52.204;7.202;2023-12-14T09:52:16;5.10;87.10
16627;DHT22;8427;52.204;7.202;2023-12-14T09:54:46;4.90;87.20
16627;DHT22;8427;52.204;7.202;2023-12-14T09:57:14;5.00;87.10
16627;DHT22;8427;52.204;7.202;2023-12-14T09:59:41;4.70;87.10
16627;DHT22;8427;52.204;7.202;2023-12-14T10:02:18;5.00;87.40
16627;DHT22;8427;52.204;7.202;2023-12-14T10:04:46;5.00;86.90
16627;DHT22;8427;52.204;7.202;2023-12-14T10:07:14;5.30;86.40
16627;DHT22;8427;52.204;7.202;2023-12-14T10:09:43;5.30;86.10
16627;DHT22;8427;52.204;7.202;2023-12-14T10:12:13;5.20;86.50
16627;DHT22;8427;52.204;7.202;2023-12-14T10:14:40;5.00;86.80
16627;DHT22;8427;52.204;7.202;2023-12-14T10:17:14;5.00;86.10
16627;DHT22;8427;52.204;7.202;2023-12-14T10:19:44;4.90;85.40
16627;DHT22;8427;52.204;7.202;2023-12-14T10:22:14;5.30;85.60
16627;DHT22;8427;52.204;7.202;2023-12-14T10:24:43;5.50;85.80
16627;DHT22;8427;52.204;7.202;2023-12-14T10:27:12;5.30;86.50
16627;DHT22;8427;52.204;7.202;2023-12-14T10:29:41;5.30;84.50
16627;DHT22;8427;52.204;7.202;2023-12-14T10:32:11;5.30;84.40
16627;DHT22;8427;52.204;7.202;2023-12-14T10:34:40;5.40;83.80
16627;DHT22;8427;52.204;7.202;2023-12-14T10:37:09;5.20;85.10
16627;DHT22;8427;52.204;7.202;2023-12-14T10:39:37;5.20;84.70
16627;DHT22;8427;52.204;7.202;2023-12-14T10:42:08;5.10;85.80
16627;DHT22;8427;52.204;7.202;2023-12-14T10:44:49;5.20;86.30
16627;DHT22;8427;52.204;7.202;2023-12-14T10:47:22;4.90;85.50
16627;DHT22;8427;52.204;7.202;2023-12-14T10:49:50;5.10;86.10
16627;DHT22;8427;52.204;7.202;2023-12-14T10:52:20;5.40;86.80
16627;DHT22;8427;52.204;7.202;2023-12-14T10:54:54;5.20;87.10
16627;DHT22;8427;52.204;7.202;2023-12-14T10:57:24;5.10;84.60
16627;DHT22;8427;52.204;7.202;2023-12-14T10:59:57;5.00;85.70
16627;DHT22;8427;52.204;7.202;2023-12-14T11:02:26;4.60;85.20
16627;DHT22;8427;52.204;7.202;2023-12-14T11:04:55;4.70;86.10
16627;DHT22;8427;52.204;7.202;2023-12-14T11:10:21;4.70;85.90
16627;DHT22;8427;52.204;7.202;2023-12-14T11:12:55;4.90;86.60
16627;DHT22;8427;52.204;7.202;2023-12-14T11:15:28;4.90;87.20
16627;DHT22;8427;52.204;7.202;2023-12-14T11:18:21;5.00;86.30
16627;DHT22;8427;52.204;7.202;2023-12-14T11:20:51;5.20;87.00
16627;DHT22;8427;52.204;7.202;2023-12-14T11:23:31;5.30;87.30
16627;DHT22;8427;52.204;7.202;2023-12-14T11:26:00;5.10;86.60
16627;DHT22;8427;52.204;7.202;2023-12-14T11:28:31;5.20;85.10
16627;DHT22;8427;52.204;7.202;2023-12-14T11:31:00;5.30;85.20
16627;DHT22;8427;52.204;7.202;2023-12-14T11:33:29;5.30;86.00
16627;DHT22;8427;52.204;7.202;2023-12-14T11:36:01;5.20;85.20
16627;DHT22;8427;52.204;7.202;2023-12-14T11:38:30;5.10;85.90
16627;DHT22;8427;52.204;7.202;2023-12-14T11:40:58;5.10;85.80
16627;DHT22;8427;52.204;7.202;2023-12-14T11:43:26;5.20;85.50
16627;DHT22;8427;52.204;7.202;2023-12-14T11:45:54;5.30;84.30
16627;DHT22;8427;52.204;7.202;2023-12-14T11:48:24;5.10;85.60
16627;DHT22;8427;52.204;7.202;2023-12-14T11:50:52;5.10;86.10
16627;DHT22;8427;52.204;7.202;2023-12-14T11:53:20;5.40;86.00
16627;DHT22;8427;52.204;7.202;2023-12-14T11:55:48;5.60;85.80
16627;DHT22;8427;52.204;7.202;2023-12-14T11:58:16;5.60;85.00
16627;DHT22;8427;52.204;7.202;2023-12-14T12:00:45;5.50;85.50
16627;DHT22;8427;52.204;7.202;2023-12-14T12:03:15;5.70;85.00
16627;DHT22;8427;52.204;7.202;2023-12-14T12:05:45;5.60;84.30
16627;DHT22;8427;52.204;7.202;2023-12-14T12:08:15;5.80;83.40
16627;DHT22;8427;52.204;7.202;2023-12-14T12:10:46;5.70;82.30
16627;DHT22;8427;52.204;7.202;2023-12-14T12:13:16;5.80;82.60
16627;DHT22;8427;52.204;7.202;2023-12-14T12:15:45;5.60;83.80
16627;DHT22;8427;52.204;7.202;2023-12-14T12:18:14;5.80;84.20
16627;DHT22;8427;52.204;7.202;2023-12-14T12:20:45;5.70;82.80
16627;DHT22;8427;52.204;7.202;2023-12-14T12:23:13;5.50;83.60
16627;DHT22;8427;52.204;7.202;2023-12-14T12:25:43;5.40;83.90
16627;DHT22;8427;52.204;7.202;2023-12-14T12:28:10;5.60;84.80
16627;DHT22;8427;52.204;7.202;2023-12-14T12:30:38;5.60;85.20
16627;DHT22;8427;52.204;7.202;2023-12-14T12:33:08;5.30;83.70
16627;DHT22;8427;52.204;7.202;2023-12-14T12:35:36;5.20;85.50
16627;DHT22;8427;52.204;7.202;2023-12-14T12:38:05;5.40;84.80
16627;DHT22;8427;52.204;7.202;2023-12-14T12:40:33;5.30;84.60
16627;DHT22;8427;52.204;7.202;2023-12-14T12:43:01;5.30;84.20
16627;DHT22;8427;52.204;7.202;2023-12-14T12:45:29;5.20;83.60
16627;DHT22;8427;52.204;7.202;2023-12-14T12:47:58;5.50;84.80
16627;DHT22;8427;52.204;7.202;2023-12-14T12:50:26;5.40;85.80
16627;DHT22;8427;52.204;7.202;2023-12-14T12:52:54;5.50;85.30
16627;DHT22;8427;52.204;7.202;2023-12-14T12:55:23;5.50;83.30
16627;DHT22;8427;52.204;7.202;2023-12-14T12:57:51;5.50;83.40
16627;DHT22;8427;52.204;7.202;2023-12-14T13:00:19;5.40;82.60
16627;DHT22;8427;52.204;7.202;2023-12-14T13:02:47;5.30;83.50
16627;DHT22;8427;52.204;7.202;2023-12-14T13:05:15;5.30;84.80
16627;DHT22;8427;52.204;7.202;2023-12-14T13:07:45;5.40;83.50
16627;DHT22;8427;52.204;7.202;2023-12-14T13:10:14;5.20;82.80
16627;DHT22;8427;52.204;7.202;2023-12-14T13:12:58;5.40;84.00
16627;DHT22;8427;52.204;7.202;2023-12-14T13:15:27;5.40;84.40
16627;DHT22;8427;52.204;7.202;2023-12-14T13:17:57;5.30;84.30
16627;DHT22;8427;52.204;7.202;2023-12-14T13:20:25;5.30;83.70
16627;DHT22;8427;52.204;7.202;2023-12-14T13:22:53;5.20;83.90
16627;DHT22;8427;52.204;7.202;2023-12-14T13:25:21;5.10;84.20
16627;DHT22;8427;52.204;7.202;2023-12-14T13:27:52;5.30;84.80
16627;DHT22;8427;52.204;7.202;2023-12-14T13:30:22;5.20;84.90
16627;DHT22;8427;52.204;7.202;2023-12-14T13:32:50;5.30;84.20
16627;DHT22;8427;52.204;7.202;2023-12-14T13:35:20;5.30;85.00
16627;DHT22;8427;52.204;7.202;2023-12-14T13:37:49;5.30;84.90
16627;DHT22;8427;52.204;7.202;2023-12-14T13:40:17;5.30;83.50
16627;DHT22;8427;52.204;7.202;2023-12-14T13:42:45;5.30;84.20
16627;DHT22;8427;52.204;7.202;2023-12-14T13:45:30;5.30;83.70
16627;DHT22;8427;52.204;7.202;2023-12-14T13:47:58;5.10;83.80
16627;DHT22;8427;52.204;7.202;2023-12-14T13:50:26;5.10;84.10
16627;DHT22;8427;52.204;7.202;2023-12-14T13:52:55;5.10;83.80
16627;DHT22;8427;52.204;7.202;2023-12-14T13:55:24;5.00;85.20
16627;DHT22;8427;52.204;7.202;2023-12-14T13:57:52;5.20;84.80
16627;DHT22;8427;52.204;7.202;2023-12-14T14:00:20;5.10;84.50
16627;DHT22;8427;52.204;7.202;2023-12-14T14:02:49;5.00;84.60
16627;DHT22;8427;52.204;7.202;2023-12-14T14:05:17;4.90;84.80
16627;DHT22;8427;52.204;7.202;2023-12-14T14:07:45;5.10;84.20
16627;DHT22;8427;52.204;7.202;2023-12-14T14:10:14;5.10;84.50
16627;DHT22;8427;52.204;7.202;2023-12-14T14:12:42;5.20;85.00
16627;DHT22;8427;52.204;7.202;2023-12-14T14:15:10;5.10;84.80
16627;DHT22;8427;52.204;7.202;2023-12-14T14:17:37;4.80;84.90
16627;DHT22;8427;52.204;7.202;2023-12-14T14:20:07;5.00;84.30
16627;DHT22;8427;52.204;7.202;2023-12-14T14:22:36;5.00;84.90
16627;DHT22;8427;52.204;7.202;2023-12-14T14:25:06;4.90;86.10
16627;DHT22;8427;52.204;7.202;2023-12-14T14:27:34;4.80;85.00
16627;DHT22;8427;52.204;7.202;2023-12-14T14:30:03;4.80;86.00
16627;DHT22;8427;52.204;7.202;2023-12-14T14:32:31;5.00;86.30
16627;DHT22;8427;52.204;7.202;2023-12-14T14:35:00;4.70;85.30
16627;DHT22;8427;52.204;7.202;2023-12-14T14:37:29;4.90;84.70
16627;DHT22;8427;52.204;7.202;2023-12-14T14:39:57;4.90;85.50
16627;DHT22;8427;52.204;7.202;2023-12-14T14:42:25;4.70;85.40
16627;DHT22;8427;52.204;7.202;2023-12-14T14:44:53;4.60;85.60
16627;DHT22;8427;52.204;7.202;2023-12-14T14:47:21;4.80;86.10
16627;DHT22;8427;52.204;7.202;2023-12-14T14:49:50;4.80;85.90
16627;DHT22;8427;52.204;7.202;2023-12-14T14:52:18;4.90;84.90
16627;DHT22;8427;52.204;7.202;2023-12-14T14:54:47;4.70;85.40
16627;DHT22;8427;52.204;7.202;2023-12-14T14:57:15;4.90;85.10
16627;DHT22;8427;52.204;7.202;2023-12-14T14:59:43;5.00;86.00
16627;DHT22;8427;52.204;7.202;2023-12-14T15:02:11;4.80;85.00
16627;DHT22;8427;52.204;7.202;2023-12-14T15:04:39;4.70;85.20
16627;DHT22;8427;52.204;7.202;2023-12-14T15:07:07;4.70;85.50
16627;DHT22;8427;52.204;7.202;2023-12-14T15:09:35;4.80;86.10
16627;DHT22;8427;52.204;7.202;2023-12-14T15:12:04;4.90;84.20
16627;DHT22;8427;52.204;7.202;2023-12-14T15:14:32;4.90;84.30
16627;DHT22;8427;52.204;7.202;2023-12-14T15:17:00;4.90;84.70
16627;DHT22;8427;52.204;7.202;2023-12-14T15:19:28;4.90;85.10
16627;DHT22;8427;52.204;7.202;2023-12-14T15:21:56;4.60;84.40
16627;DHT22;8427;52.204;7.202;2023-12-14T15:24:24;4.70;85.30
16627;DHT22;8427;52.204;7.202;2023-12-14T15:26:52;4.60;84.80
16627;DHT22;8427;52.204;7.202;2023-12-14T15:29:21;4.90;85.10
16627;DHT22;8427;52.204;7.202;2023-12-14T15:31:49;4.80;85.10
16627;DHT22;8427;52.204;7.202;2023-12-14T15:34:19;4.70;85.50
16627;DHT22;8427;52.204;7.202;2023-12-14T15:36:47;4.60;85.90
16627;DHT22;8427;52.204;7.202;2023-12-14T15:39:15;4.60;85.60
16627;DHT22;8427;52.204;7.202;2023-12-14T15:41:43;4.80;86.10
16627;DHT22;8427;52.204;7.202;2023-12-14T15:44:11;4.70;85.80
16627;DHT22;8427;52.204;7.202;2023-12-14T15:46:41;4.70;85.20
16627;DHT22;8427;52.204;7.202;2023-12-14T15:49:08;4.90;86.10
16627;DHT22;8427;52.204;7.202;2023-12-14T15:51:39;4.60;86.10
16627;DHT22;8427;52.204;7.202;2023-12-14T15:54:07;4.80;86.30
16627;DHT22;8427;52.204;7.202;2023-12-14T15:56:35;4.90;86.30
16627;DHT22;8427;52.204;7.202;2023-12-14T15:59:03;4.70;86.00
16627;DHT22;8427;52.204;7.202;2023-12-14T16:01:33;4.80;86.20
16627;DHT22;8427;52.204;7.202;2023-12-14T16:04:04;4.70;86.50
16627;DHT22;8427;52.204;7.202;2023-12-14T16:06:33;4.70;86.70
16627;DHT22;8427;52.204;7.202;2023-12-14T16:09:01;4.80;86.40
16627;DHT22;8427;52.204;7.202;2023-12-14T16:11:29;4.70;86.60
16627;DHT22;8427;52.204;7.202;2023-12-14T16:13:57;4.60;86.40